Time,TemperatureF,DewpointF,PressureIn,WindDirection,WindDirectionDegrees,WindSpeedMPH,WindSpeedGustMPH,Humidity,HourlyPrecipIn,Conditions,Clouds,dailyrainin,SoftwareType,DateUTC
2013-02-21 00:00:00,27.0,5.3,27.58,NNE,15,3.6,4.0,39,0.00,,---,0.00,VWS V14.01,2013-02-21 08:00:00,
2013-02-21 00:05:00,27.0,5.9,27.58,NNE,29,2.7,4.0,40,0.00,,---,0.00,VWS V14.01,2013-02-21 08:05:00,
2013-02-21 00:10:00,27.0,5.9,27.58,North,0,4.0,4.0,40,0.00,,---,0.00,VWS V14.01,2013-02-21 08:10:00,
2013-02-21 00:15:00,27.0,5.9,27.58,NE,34,3.1,3.6,40,0.00,,---,0.00,VWS V14.01,2013-02-21 08:15:00,
2013-02-21 00:20:00,26.8,5.7,27.58,NNE,24,0.0,0.0,40,0.00,,---,0.00,VWS V14.01,2013-02-21 08:20:00,
2013-02-21 00:25:00,26.8,5.7,27.58,NE,47,0.0,0.0,40,0.00,,---,0.00,VWS V14.01,2013-02-21 08:25:00,
2013-02-21 00:30:00,26.6,5.6,27.58,NE,45,0.0,0.0,40,0.00,,---,0.00,VWS V14.01,2013-02-21 08:30:00,
2013-02-21 00:35:00,26.4,5.4,27.58,NE,45,0.0,0.0,40,0.00,,---,0.00,VWS V14.01,2013-02-21 08:35:00,
2013-02-21 00:40:00,26.1,4.5,27.58,NE,45,0.0,0.0,39,0.00,,---,0.00,VWS V14.01,2013-02-21 08:40:00,
2013-02-21 00:45:00,25.9,4.3,27.58,NE,45,0.0,0.0,39,0.00,,---,0.00,VWS V14.01,2013-02-21 08:45:00,
2013-02-21 00:50:00,25.3,3.9,27.58,NE,45,0.0,0.0,39,0.00,,---,0.00,VWS V14.01,2013-02-21 08:50:00,
2013-02-21 00:55:00,25.2,3.7,27.58,NE,45,0.0,0.0,39,0.00,,---,0.00,VWS V14.01,2013-02-21 08:55:00,
2013-02-21 01:00:00,24.8,3.4,27.58,NE,45,0.0,0.0,39,0.00,,---,0.00,VWS V14.01,2013-02-21 09:00:00,
2013-02-21 01:05:00,24.8,3.9,27.58,NE,45,0.0,0.0,40,0.00,,---,0.00,VWS V14.01,2013-02-21 09:05:00,
2013-02-21 01:10:00,25.0,4.1,27.58,NE,45,0.0,0.0,40,0.00,,---,0.00,VWS V14.01,2013-02-21 09:10:00,
2013-02-21 01:15:00,25.0,4.1,27.58,NE,45,0.0,0.0,40,0.00,,---,0.00,VWS V14.01,2013-02-21 09:15:00,
2013-02-21 01:20:00,25.0,4.1,27.58,NE,45,0.0,0.0,40,0.00,,---,0.00,VWS V14.01,2013-02-21 09:20:00,
2013-02-21 01:25:00,25.3,4.9,27.58,NNE,13,0.0,0.0,41,0.00,,---,0.00,VWS V14.01,2013-02-21 09:25:00,
2013-02-21 01:30:00,25.5,5.1,27.58,NNE,13,0.0,0.0,41,0.00,,---,0.00,VWS V14.01,2013-02-21 09:30:00,
2013-02-21 01:35:00,25.9,5.4,27.58,North,357,0.0,0.0,41,0.00,,---,0.00,VWS V14.01,2013-02-21 09:35:00,
2013-02-21 01:40:00,26.1,5.6,27.58,North,357,0.0,0.0,41,0.00,,---,0.00,VWS V14.01,2013-02-21 09:40:00,
2013-02-21 01:45:00,26.2,5.8,27.58,NNW,344,0.0,0.0,41,0.00,,---,0.00,VWS V14.01,2013-02-21 09:45:00,
2013-02-21 01:50:00,26.4,5.9,27.61,NNW,343,0.0,0.0,41,0.00,,---,0.00,VWS V14.01,2013-02-21 09:50:00,
2013-02-21 01:55:00,26.8,6.2,27.61,NNW,345,0.0,0.0,41,0.00,,---,0.00,VWS V14.01,2013-02-21 09:55:00,
2013-02-21 02:00:00,27.0,6.4,27.61,NNE,15,2.7,3.1,41,0.00,,---,0.00,VWS V14.01,2013-02-21 10:00:00,
2013-02-21 02:05:00,27.1,5.5,27.61,North,4,3.1,3.6,39,0.00,,---,0.00,VWS V14.01,2013-02-21 10:05:00,
2013-02-21 02:10:00,27.3,5.1,27.61,NNE,20,4.9,4.9,38,0.00,,---,0.00,VWS V14.01,2013-02-21 10:10:00,
2013-02-21 02:15:00,27.5,5.2,27.61,NNE,29,0.0,0.0,38,0.00,,---,0.00,VWS V14.01,2013-02-21 10:15:00,
2013-02-21 02:20:00,27.5,4.7,27.61,North,4,0.0,0.0,37,0.00,,---,0.00,VWS V14.01,2013-02-21 10:20:00,
2013-02-21 02:25:00,27.3,4.5,27.61,NNE,18,0.0,0.0,37,0.00,,---,0.00,VWS V14.01,2013-02-21 10:25:00,
2013-02-21 06:52:00,30.6,4.9,27.58,SSE,149,3.6,6.3,33,0.00,,---,0.00,VWS V14.01,2013-02-21 14:52:00,
2013-02-21 06:57:00,30.9,5.2,27.58,SE,138,3.1,3.6,33,0.00,,---,0.00,VWS V14.01,2013-02-21 14:57:00,
2013-02-21 07:02:00,31.3,4.9,27.58,SSE,165,3.1,5.8,32,0.00,,---,0.00,VWS V14.01,2013-02-21 15:02:00,
2013-02-21 07:07:00,31.5,5.0,27.58,SE,141,5.4,8.7,32,0.00,,---,0.00,VWS V14.01,2013-02-21 15:07:00,
2013-02-21 07:12:00,31.6,4.5,27.58,SSE,162,5.4,11.0,31,0.00,,---,0.00,VWS V14.01,2013-02-21 15:12:00,
2013-02-21 07:17:00,31.8,4.6,27.58,South,176,5.4,6.3,31,0.00,,---,0.00,VWS V14.01,2013-02-21 15:17:00,
2013-02-21 07:22:00,31.8,4.6,27.58,ESE,119,6.3,10.5,31,0.00,,---,0.00,VWS V14.01,2013-02-21 15:22:00,
2013-02-21 07:27:00,32.0,5.5,27.58,South,176,4.0,6.3,32,0.00,,---,0.00,VWS V14.01,2013-02-21 15:27:00,
2013-02-21 07:32:00,32.0,5.5,27.58,SSE,163,5.4,7.6,32,0.00,,---,0.00,VWS V14.01,2013-02-21 15:32:00,
2013-02-21 07:37:00,32.4,5.8,27.58,SSE,159,3.6,6.3,32,0.00,,---,0.00,VWS V14.01,2013-02-21 15:37:00,
2013-02-21 07:42:00,32.5,6.0,27.58,South,182,7.6,7.6,32,0.00,,---,0.00,VWS V14.01,2013-02-21 15:42:00,
2013-02-21 07:47:00,32.5,6.0,27.58,South,188,7.6,8.1,32,0.00,,---,0.00,VWS V14.01,2013-02-21 15:47:00,
2013-02-21 07:52:00,32.7,6.1,27.58,SSE,166,5.4,8.3,32,0.00,,---,0.00,VWS V14.01,2013-02-21 15:52:00,
2013-02-21 07:57:00,32.7,6.1,27.58,South,172,7.6,7.6,32,0.00,,---,0.00,VWS V14.01,2013-02-21 15:57:00,
2013-02-21 08:02:00,33.1,6.4,27.61,South,175,8.3,8.3,32,0.00,,---,0.00,VWS V14.01,2013-02-21 16:02:00,
2013-02-21 08:07:00,33.3,6.6,27.61,South,176,4.5,5.4,32,0.00,,---,0.00,VWS V14.01,2013-02-21 16:07:00,
2013-02-21 08:12:00,33.4,6.1,27.61,SSE,165,5.8,5.8,31,0.00,,---,0.00,VWS V14.01,2013-02-21 16:12:00,
2013-02-21 08:17:00,33.6,6.2,27.61,SSE,154,3.1,7.6,31,0.00,,---,0.00,VWS V14.01,2013-02-21 16:17:00,
2013-02-21 08:22:00,33.6,6.2,27.61,South,175,8.3,8.7,31,0.00,,---,0.00,VWS V14.01,2013-02-21 16:22:00,
2013-02-21 08:27:00,33.6,6.2,27.61,SSE,158,8.1,8.1,31,0.00,,---,0.00,VWS V14.01,2013-02-21 16:27:00,
2013-02-21 08:32:00,33.4,6.8,27.61,SSE,163,5.8,8.1,32,0.00,,---,0.00,VWS V14.01,2013-02-21 16:32:00,
2013-02-21 08:37:00,33.4,6.8,27.61,SSE,152,5.8,8.1,32,0.00,,---,0.00,VWS V14.01,2013-02-21 16:37:00,
2013-02-21 08:42:00,33.6,7.6,27.61,SSE,150,5.4,7.6,33,0.00,,---,0.00,VWS V14.01,2013-02-21 16:42:00,
2013-02-21 08:47:00,33.6,7.6,27.58,South,180,4.0,6.3,33,0.00,,---,0.00,VWS V14.01,2013-02-21 16:47:00,
2013-02-21 08:52:00,33.6,7.6,27.58,SSE,166,5.4,8.7,33,0.00,,---,0.00,VWS V14.01,2013-02-21 16:52:00,
2013-02-21 08:57:00,33.8,7.8,27.58,South,170,5.4,5.8,33,0.00,,---,0.00,VWS V14.01,2013-02-21 16:57:00,
2013-02-21 09:02:00,34.0,7.9,27.61,SSE,168,5.8,8.3,33,0.00,,---,0.00,VWS V14.01,2013-02-21 17:02:00,
2013-02-21 09:07:00,34.5,8.4,27.61,SE,136,6.3,7.6,33,0.00,,---,0.00,VWS V14.01,2013-02-21 17:07:00,
2013-02-21 09:12:00,34.9,7.3,27.61,South,187,8.3,8.7,31,0.00,,---,0.00,VWS V14.01,2013-02-21 17:12:00,
2013-02-21 09:17:00,34.5,7.0,27.61,South,175,9.6,9.6,31,0.00,,---,0.00,VWS V14.01,2013-02-21 17:17:00,
2013-02-21 09:22:00,34.3,7.6,27.61,South,178,8.1,8.1,32,0.00,,---,0.00,VWS V14.01,2013-02-21 17:22:00,
2013-02-21 09:27:00,34.3,8.2,27.61,ESE,119,5.8,5.8,33,0.00,,---,0.00,VWS V14.01,2013-02-21 17:27:00,
2013-02-21 09:32:00,34.5,8.4,27.61,SSE,162,5.8,6.3,33,0.00,,---,0.00,VWS V14.01,2013-02-21 17:32:00,
2013-02-21 09:37:00,34.7,8.6,27.61,South,169,5.8,7.2,33,0.00,,---,0.00,VWS V14.01,2013-02-21 17:37:00,
2013-02-21 09:42:00,34.9,8.7,27.61,South,189,5.8,6.7,33,0.00,,---,0.00,VWS V14.01,2013-02-21 17:42:00,
2013-02-21 09:47:00,35.2,9.0,27.61,SE,144,3.1,8.3,33,0.00,,---,0.00,VWS V14.01,2013-02-21 17:47:00,
2013-02-21 09:52:00,35.2,8.4,27.61,South,171,8.1,10.1,32,0.00,,---,0.00,VWS V14.01,2013-02-21 17:52:00,
2013-02-21 09:57:00,35.1,8.2,27.61,SSE,158,6.3,8.1,32,0.00,,---,0.00,VWS V14.01,2013-02-21 17:57:00,
2013-02-21 10:02:00,35.1,8.9,27.61,South,190,6.3,6.7,33,0.00,,---,0.00,VWS V14.01,2013-02-21 18:02:00,
2013-02-21 10:07:00,35.2,9.0,27.61,South,175,3.6,7.6,33,0.00,,---,0.00,VWS V14.01,2013-02-21 18:07:00,
2013-02-21 10:12:00,35.1,8.9,27.61,SSE,152,9.6,11.0,33,0.00,,---,0.00,VWS V14.01,2013-02-21 18:12:00,
2013-02-21 10:17:00,35.2,9.0,27.58,SE,140,5.8,7.6,33,0.00,,---,0.00,VWS V14.01,2013-02-21 18:17:00,
2013-02-21 10:22:00,35.4,9.2,27.58,SSW,195,8.1,8.1,33,0.00,,---,0.00,VWS V14.01,2013-02-21 18:22:00,
2013-02-21 10:27:00,35.6,8.7,27.58,SSE,160,5.4,5.8,32,0.00,,---,0.00,VWS V14.01,2013-02-21 18:27:00,
2013-02-21 10:32:00,36.0,9.0,27.58,SSE,168,3.6,5.8,32,0.00,,---,0.00,VWS V14.01,2013-02-21 18:32:00,
2013-02-21 10:37:00,36.1,8.4,27.58,SSE,161,5.8,7.6,31,0.00,,---,0.00,VWS V14.01,2013-02-21 18:37:00,
2013-02-21 10:42:00,36.0,8.3,27.58,SSE,159,8.7,11.0,31,0.00,,---,0.00,VWS V14.01,2013-02-21 18:42:00,
2013-02-21 10:47:00,36.1,9.1,27.58,SSE,157,5.4,10.5,32,0.00,,---,0.00,VWS V14.01,2013-02-21 18:47:00,
2013-02-21 10:52:00,36.0,8.3,27.58,SSE,152,10.1,10.1,31,0.00,,---,0.00,VWS V14.01,2013-02-21 18:52:00,
2013-02-21 10:57:00,35.8,8.1,27.58,SSE,163,8.3,11.0,31,0.00,,---,0.00,VWS V14.01,2013-02-21 18:57:00,
2013-02-21 11:02:00,35.8,8.8,27.58,SSE,164,7.2,7.6,32,0.00,,---,0.00,VWS V14.01,2013-02-21 19:02:00,
2013-02-21 11:07:00,35.8,8.1,27.58,SSE,158,6.3,8.1,31,0.00,,---,0.00,VWS V14.01,2013-02-21 19:07:00,
2013-02-21 11:12:00,35.8,8.8,27.58,SE,146,8.1,8.1,32,0.00,,---,0.00,VWS V14.01,2013-02-21 19:12:00,
2013-02-21 11:17:00,35.8,8.8,27.58,SSE,153,8.7,8.7,32,0.00,,---,0.00,VWS V14.01,2013-02-21 19:17:00,
2013-02-21 11:22:00,35.6,8.7,27.58,SSE,164,8.1,10.5,32,0.00,,---,0.00,VWS V14.01,2013-02-21 19:22:00,
2013-02-21 11:27:00,35.2,9.0,27.58,South,188,10.1,10.1,33,0.00,,---,0.00,VWS V14.01,2013-02-21 19:27:00,
2013-02-21 11:32:00,34.9,11.3,27.58,South,176,5.8,11.4,37,0.00,,---,0.00,VWS V14.01,2013-02-21 19:32:00,
2013-02-21 11:37:00,34.5,12.1,27.58,SSE,167,7.6,8.1,39,0.00,,---,0.00,VWS V14.01,2013-02-21 19:37:00,
2013-02-21 11:42:00,34.3,12.5,27.58,SSE,150,7.6,8.7,40,0.00,,---,0.00,VWS V14.01,2013-02-21 19:42:00,
2013-02-21 11:47:00,34.3,13.1,27.58,South,172,3.1,9.6,41,0.00,,---,0.00,VWS V14.01,2013-02-21 19:47:00,
2013-02-21 11:52:00,34.0,13.3,27.58,South,175,8.3,10.1,42,0.00,,---,0.00,VWS V14.01,2013-02-21 19:52:00,
2013-02-21 11:57:00,34.0,13.9,27.58,South,178,5.8,5.8,43,0.00,,---,0.00,VWS V14.01,2013-02-21 19:57:00,
2013-02-21 12:02:00,33.8,14.2,27.58,South,174,5.8,5.8,44,0.00,,---,0.00,VWS V14.01,2013-02-21 20:02:00,
2013-02-21 12:07:00,33.8,15.2,27.58,SSE,153,4.0,7.6,46,0.00,,---,0.00,VWS V14.01,2013-02-21 20:07:00,
2013-02-21 12:12:00,33.6,16.0,27.58,South,175,5.4,5.8,48,0.00,,---,0.00,VWS V14.01,2013-02-21 20:12:00,
2013-02-21 12:17:00,33.6,17.0,27.58,SSE,155,6.3,6.3,50,0.00,,---,0.00,VWS V14.01,2013-02-21 20:17:00,
2013-02-21 12:22:00,33.6,17.0,27.58,SSE,158,8.1,8.3,50,0.00,,---,0.00,VWS V14.01,2013-02-21 20:22:00,
2013-02-21 12:27:00,33.6,17.4,27.58,SSE,166,5.4,5.4,51,0.00,,---,0.00,VWS V14.01,2013-02-21 20:27:00,
2013-02-21 12:32:00,33.6,17.4,27.58,South,189,3.6,6.3,51,0.00,,---,0.00,VWS V14.01,2013-02-21 20:32:00,
2013-02-21 12:37:00,33.6,17.4,27.58,South,170,5.8,5.8,51,0.00,,---,0.00,VWS V14.01,2013-02-21 20:37:00,
2013-02-21 12:42:00,33.6,17.4,27.58,South,173,3.1,6.3,51,0.00,,---,0.00,VWS V14.01,2013-02-21 20:42:00,
2013-02-21 12:47:00,33.8,17.6,27.58,SSE,164,5.4,7.6,51,0.00,,---,0.00,VWS V14.01,2013-02-21 20:47:00,
2013-02-21 12:52:00,33.8,17.6,27.58,South,174,5.8,8.3,51,0.00,,---,0.00,VWS V14.01,2013-02-21 20:52:00,
2013-02-21 12:57:00,33.8,17.6,27.58,SSE,156,7.6,7.6,51,0.00,,---,0.00,VWS V14.01,2013-02-21 20:57:00,
2013-02-21 13:02:00,33.8,17.1,27.55,South,189,8.3,8.3,50,0.00,,---,0.00,VWS V14.01,2013-02-21 21:02:00,
2013-02-21 13:07:00,33.8,17.1,27.55,SSE,167,5.8,6.3,50,0.00,,---,0.00,VWS V14.01,2013-02-21 21:07:00,
2013-02-21 13:12:00,33.8,17.1,27.55,South,169,7.6,10.1,50,0.00,,---,0.00,VWS V14.01,2013-02-21 21:12:00,
2013-02-21 13:17:00,33.8,17.1,27.55,South,189,5.8,5.8,50,0.00,,---,0.00,VWS V14.01,2013-02-21 21:17:00,
2013-02-21 13:22:00,33.8,17.1,27.55,SSE,153,4.9,5.8,50,0.00,,---,0.00,VWS V14.01,2013-02-21 21:22:00,
2013-02-21 13:27:00,33.8,17.1,27.55,South,176,3.6,5.8,50,0.00,,---,0.00,VWS V14.01,2013-02-21 21:27:00,
2013-02-21 13:32:00,33.6,17.4,27.55,South,171,0.0,6.3,51,0.00,,---,0.00,VWS V14.01,2013-02-21 21:32:00,
2013-02-21 13:37:00,33.6,17.4,27.55,SSE,164,3.6,8.7,51,0.00,,---,0.00,VWS V14.01,2013-02-21 21:37:00,
2013-02-21 13:42:00,33.6,17.4,27.55,South,183,0.0,0.0,51,0.00,,---,0.00,VWS V14.01,2013-02-21 21:42:00,
2013-02-21 13:47:00,33.4,17.3,27.55,SSW,193,0.0,0.0,51,0.00,,---,0.00,VWS V14.01,2013-02-21 21:47:00,
2013-02-21 13:52:00,33.4,17.7,27.55,South,178,0.0,0.0,52,0.00,,---,0.00,VWS V14.01,2013-02-21 21:52:00,
2013-02-21 13:57:00,33.4,17.7,27.55,SSW,200,0.0,0.0,52,0.00,,---,0.00,VWS V14.01,2013-02-21 21:57:00,
2013-02-21 14:02:00,33.3,17.5,27.55,South,175,0.0,0.0,52,0.00,,---,0.00,VWS V14.01,2013-02-21 22:02:00,
2013-02-21 14:07:00,33.3,18.0,27.55,South,176,0.0,0.0,53,0.00,,---,0.00,VWS V14.01,2013-02-21 22:07:00,
2013-02-21 14:12:00,33.3,18.0,27.55,SSW,204,0.0,0.0,53,0.00,,---,0.00,VWS V14.01,2013-02-21 22:12:00,
2013-02-21 14:17:00,33.3,18.0,27.55,South,185,0.0,0.0,53,0.00,,---,0.00,VWS V14.01,2013-02-21 22:17:00,
2013-02-21 14:22:00,33.3,18.0,27.55,South,177,0.0,0.0,53,0.00,,---,0.00,VWS V14.01,2013-02-21 22:22:00,
2013-02-21 14:27:00,33.3,18.0,27.55,South,177,0.0,0.0,53,0.00,,---,0.00,VWS V14.01,2013-02-21 22:27:00,
2013-02-21 14:32:00,33.4,18.6,27.58,South,182,0.0,0.0,54,0.00,,---,0.00,VWS V14.01,2013-02-21 22:32:00,
2013-02-21 14:37:00,33.4,18.6,27.58,South,184,0.0,0.0,54,0.00,,---,0.00,VWS V14.01,2013-02-21 22:37:00,
2013-02-21 14:42:00,33.6,18.8,27.58,SSE,161,0.0,0.0,54,0.00,,---,0.00,VWS V14.01,2013-02-21 22:42:00,
2013-02-21 14:47:00,33.6,18.8,27.58,SSW,194,0.0,0.0,54,0.00,,---,0.00,VWS V14.01,2013-02-21 22:47:00,
2013-02-21 14:52:00,33.6,18.8,27.58,SSW,197,0.0,0.0,54,0.00,,---,0.00,VWS V14.01,2013-02-21 22:52:00,
2013-02-21 14:57:00,33.8,18.9,27.58,South,174,0.0,0.0,54,0.00,,---,0.00,VWS V14.01,2013-02-21 22:57:00,
2013-02-21 15:02:00,33.8,18.5,27.58,South,176,0.0,0.0,53,0.00,,---,0.00,VWS V14.01,2013-02-21 23:02:00,
2013-02-21 15:07:00,33.8,18.5,27.58,South,170,0.0,0.0,53,0.00,,---,0.00,VWS V14.01,2013-02-21 23:07:00,
2013-02-21 15:12:00,33.8,18.5,27.58,South,171,0.0,0.0,53,0.00,,---,0.00,VWS V14.01,2013-02-21 23:12:00,
2013-02-21 15:17:00,33.8,18.0,27.55,South,173,0.0,0.0,52,0.00,,---,0.00,VWS V14.01,2013-02-21 23:17:00,
2013-02-21 15:22:00,33.8,18.0,27.55,SSE,160,0.0,0.0,52,0.00,,---,0.00,VWS V14.01,2013-02-21 23:22:00,
2013-02-21 15:27:00,34.0,18.2,27.55,SSE,161,0.0,0.0,52,0.00,,---,0.00,VWS V14.01,2013-02-21 23:27:00,
2013-02-21 15:32:00,34.0,17.8,27.55,SSE,160,0.0,0.0,51,0.00,,---,0.00,VWS V14.01,2013-02-21 23:32:00,
2013-02-21 15:37:00,34.0,17.8,27.55,South,177,0.0,0.0,51,0.00,,---,0.00,VWS V14.01,2013-02-21 23:37:00,
2013-02-21 15:42:00,34.2,17.9,27.55,SSE,160,0.0,0.0,51,0.00,,---,0.00,VWS V14.01,2013-02-21 23:42:00,
2013-02-21 15:47:00,34.3,18.1,27.55,South,172,0.0,0.0,51,0.00,,---,0.00,VWS V14.01,2013-02-21 23:47:00,
2013-02-21 15:52:00,34.5,17.8,27.55,SSE,167,0.0,0.0,50,0.00,,---,0.00,VWS V14.01,2013-02-21 23:52:00,
2013-02-21 15:57:00,34.5,17.8,27.55,South,171,0.0,0.0,50,0.00,,---,0.00,VWS V14.01,2013-02-21 23:57:00,
2013-02-21 16:02:00,34.5,17.3,27.55,South,179,0.0,0.0,49,0.00,,---,0.00,VWS V14.01,2013-02-22 00:02:00,
2013-02-21 16:07:00,34.7,17.5,27.55,SSE,162,0.0,0.0,49,0.00,,---,0.00,VWS V14.01,2013-02-22 00:07:00,
2013-02-21 16:12:00,34.7,17.0,27.55,SSE,152,6.3,6.3,48,0.00,,---,0.00,VWS V14.01,2013-02-22 00:12:00,
2013-02-21 16:17:00,34.7,17.0,27.58,SSE,164,4.0,4.0,48,0.00,,---,0.00,VWS V14.01,2013-02-22 00:17:00,
2013-02-21 16:22:00,34.9,17.2,27.58,South,184,3.6,4.0,48,0.00,,---,0.00,VWS V14.01,2013-02-22 00:22:00,
2013-02-21 16:27:00,35.2,17.5,27.58,SSE,151,3.1,4.0,48,0.00,,---,0.00,VWS V14.01,2013-02-22 00:27:00,
2013-02-21 16:32:00,35.2,17.0,27.55,SSE,162,3.1,3.1,47,0.00,,---,0.00,VWS V14.01,2013-02-22 00:32:00,
2013-02-21 16:37:00,35.2,17.0,27.55,South,173,3.6,4.0,47,0.00,,---,0.00,VWS V14.01,2013-02-22 00:37:00,
2013-02-21 16:42:00,35.1,16.4,27.55,SSE,168,3.6,4.0,46,0.00,,---,0.00,VWS V14.01,2013-02-22 00:42:00,
2013-02-21 16:47:00,35.1,16.4,27.55,SSE,163,2.7,3.1,46,0.00,,---,0.00,VWS V14.01,2013-02-22 00:47:00,
2013-02-21 16:52:00,35.1,16.4,27.55,South,171,2.2,3.1,46,0.00,,---,0.00,VWS V14.01,2013-02-22 00:52:00,
2013-02-21 16:57:00,35.1,16.4,27.55,SSE,160,0.0,3.6,46,0.00,,---,0.00,VWS V14.01,2013-02-22 00:57:00,
2013-02-21 17:02:00,35.1,16.4,27.55,South,172,0.0,3.1,46,0.00,,---,0.00,VWS V14.01,2013-02-22 01:02:00,
2013-02-21 17:07:00,35.1,16.4,27.55,SSE,158,0.0,4.0,46,0.00,,---,0.00,VWS V14.01,2013-02-22 01:07:00,
2013-02-21 17:12:00,34.9,16.2,27.55,SSE,165,3.1,4.9,46,0.00,,---,0.00,VWS V14.01,2013-02-22 01:12:00,
2013-02-21 17:17:00,34.7,16.0,27.55,SSE,168,2.2,4.0,46,0.00,,---,0.00,VWS V14.01,2013-02-22 01:17:00,
2013-02-21 17:22:00,34.7,16.0,27.55,SSW,193,6.3,6.3,46,0.00,,---,0.00,VWS V14.01,2013-02-22 01:22:00,
2013-02-21 17:27:00,34.9,15.7,27.55,SSE,155,8.1,8.1,45,0.00,,---,0.00,VWS V14.01,2013-02-22 01:27:00,
2013-02-21 17:32:00,34.9,15.2,27.55,South,174,5.8,5.8,44,0.00,,---,0.00,VWS V14.01,2013-02-22 01:32:00,
2013-02-21 17:37:00,34.9,15.2,27.55,SSE,159,6.3,6.3,44,0.00,,---,0.00,VWS V14.01,2013-02-22 01:37:00,
2013-02-21 17:42:00,34.7,14.5,27.55,South,173,6.3,8.3,43,0.00,,---,0.00,VWS V14.01,2013-02-22 01:42:00,
2013-02-21 17:47:00,34.7,14.5,27.55,SSE,167,3.1,8.1,43,0.00,,---,0.00,VWS V14.01,2013-02-22 01:47:00,
2013-02-21 17:52:00,34.7,14.5,27.55,SSE,166,5.4,6.3,43,0.00,,---,0.00,VWS V14.01,2013-02-22 01:52:00,
2013-02-21 17:57:00,34.5,14.3,27.55,SSE,155,3.1,4.0,43,0.00,,---,0.00,VWS V14.01,2013-02-22 01:57:00,
2013-02-21 18:02:00,34.5,14.3,27.55,South,179,8.1,8.1,43,0.00,,---,0.00,VWS V14.01,2013-02-22 02:02:00,
2013-02-21 18:07:00,34.3,14.2,27.55,SSE,158,4.0,5.4,43,0.00,,---,0.00,VWS V14.01,2013-02-22 02:07:00,
2013-02-21 18:12:00,34.3,14.7,27.55,SSE,165,2.7,5.4,44,0.00,,---,0.00,VWS V14.01,2013-02-22 02:12:00,
2013-02-21 18:17:00,34.3,14.7,27.55,SSE,164,5.8,5.8,44,0.00,,---,0.00,VWS V14.01,2013-02-22 02:17:00,
2013-02-21 18:22:00,34.3,14.2,27.55,SSE,165,5.8,6.3,43,0.00,,---,0.00,VWS V14.01,2013-02-22 02:22:00,
2013-02-21 18:27:00,34.3,14.2,27.55,South,175,3.6,3.6,43,0.00,,---,0.00,VWS V14.01,2013-02-22 02:27:00,
2013-02-21 18:32:00,34.2,14.0,27.58,SSE,147,3.6,3.6,43,0.00,,---,0.00,VWS V14.01,2013-02-22 02:32:00,
2013-02-21 18:37:00,34.0,14.4,27.58,SSE,150,0.0,0.0,44,0.00,,---,0.00,VWS V14.01,2013-02-22 02:37:00,
2013-02-21 18:42:00,34.0,14.4,27.58,SSE,155,3.6,4.0,44,0.00,,---,0.00,VWS V14.01,2013-02-22 02:42:00,
2013-02-21 18:47:00,33.8,14.2,27.58,SE,133,4.9,4.9,44,0.00,,---,0.00,VWS V14.01,2013-02-22 02:47:00,
2013-02-21 18:52:00,33.8,14.2,27.58,South,180,3.1,3.6,44,0.00,,---,0.00,VWS V14.01,2013-02-22 02:52:00,
2013-02-21 18:57:00,33.8,14.2,27.58,SSE,162,3.1,4.0,44,0.00,,---,0.00,VWS V14.01,2013-02-22 02:57:00,
2013-02-21 19:02:00,34.0,14.4,27.58,SSE,154,2.7,4.9,44,0.00,,---,0.00,VWS V14.01,2013-02-22 03:02:00,
2013-02-21 19:07:00,34.0,13.9,27.58,SSE,158,2.7,4.9,43,0.00,,---,0.00,VWS V14.01,2013-02-22 03:07:00,
2013-02-21 19:12:00,34.2,13.5,27.58,SSE,165,3.6,5.8,42,0.00,,---,0.00,VWS V14.01,2013-02-22 03:12:00,
2013-02-21 19:17:00,34.3,13.1,27.58,South,185,5.8,6.3,41,0.00,,---,0.00,VWS V14.01,2013-02-22 03:17:00,
2013-02-21 19:22:00,34.3,13.1,27.58,South,176,6.3,6.3,41,0.00,,---,0.00,VWS V14.01,2013-02-22 03:22:00,
2013-02-21 19:27:00,34.5,12.7,27.58,SSE,163,3.6,5.8,40,0.00,,---,0.00,VWS V14.01,2013-02-22 03:27:00,
2013-02-21 19:32:00,34.5,12.7,27.58,SSE,153,5.4,7.6,40,0.00,,---,0.00,VWS V14.01,2013-02-22 03:32:00,
2013-02-21 19:37:00,34.5,12.7,27.58,SE,146,6.3,6.3,40,0.00,,---,0.00,VWS V14.01,2013-02-22 03:37:00,
2013-02-21 19:42:00,34.3,12.5,27.58,SSE,158,3.6,6.3,40,0.00,,---,0.00,VWS V14.01,2013-02-22 03:42:00,
2013-02-21 19:47:00,34.3,12.5,27.58,SE,145,5.4,6.3,40,0.00,,---,0.00,VWS V14.01,2013-02-22 03:47:00,
2013-02-21 19:52:00,34.2,12.4,27.58,SSE,147,7.6,8.1,40,0.00,,---,0.00,VWS V14.01,2013-02-22 03:52:00,
2013-02-21 19:57:00,34.2,12.4,27.58,South,175,8.1,8.7,40,0.00,,---,0.00,VWS V14.01,2013-02-22 03:57:00,
2013-02-21 20:02:00,34.2,12.9,27.55,SSE,158,8.3,11.0,41,0.00,,---,0.00,VWS V14.01,2013-02-22 04:02:00,
2013-02-21 20:07:00,34.2,12.9,27.55,South,170,12.8,12.8,41,0.00,,---,0.00,VWS V14.01,2013-02-22 04:07:00,
2013-02-21 20:12:00,34.2,12.9,27.55,South,173,5.8,5.8,41,0.00,,---,0.00,VWS V14.01,2013-02-22 04:12:00,
2013-02-21 20:17:00,34.0,12.8,27.55,SSE,159,10.1,10.1,41,0.00,,---,0.00,VWS V14.01,2013-02-22 04:17:00,
2013-02-21 20:22:00,34.0,12.8,27.55,SSE,161,10.1,10.1,41,0.00,,---,0.00,VWS V14.01,2013-02-22 04:22:00,
2013-02-21 20:27:00,34.0,12.8,27.55,South,177,5.8,8.3,41,0.00,,---,0.00,VWS V14.01,2013-02-22 04:27:00,
2013-02-21 20:32:00,34.0,12.8,27.55,South,177,5.4,8.7,41,0.00,,---,0.00,VWS V14.01,2013-02-22 04:32:00,
2013-02-21 20:37:00,34.0,12.8,27.55,SSE,162,5.8,5.8,41,0.00,,---,0.00,VWS V14.01,2013-02-22 04:37:00,
2013-02-21 20:42:00,34.0,12.8,27.55,South,179,5.4,6.3,41,0.00,,---,0.00,VWS V14.01,2013-02-22 04:42:00,
2013-02-21 20:47:00,33.8,12.6,27.55,SSE,163,8.1,8.1,41,0.00,,---,0.00,VWS V14.01,2013-02-22 04:47:00,
2013-02-21 20:52:00,33.8,12.6,27.55,SSE,167,8.3,10.5,41,0.00,,---,0.00,VWS V14.01,2013-02-22 04:52:00,
2013-02-21 20:57:00,33.8,12.6,27.55,South,170,8.1,15.0,41,0.00,,---,0.00,VWS V14.01,2013-02-22 04:57:00,
2013-02-21 21:00:00,33.8,12.6,27.55,SSE,160,5.4,6.3,41,0.00,,---,0.00,VWS V14.01,2013-02-22 05:00:00,
2013-02-21 21:05:00,34.0,12.8,27.55,SE,136,7.6,8.3,41,0.00,,---,0.00,VWS V14.01,2013-02-22 05:05:00,
2013-02-21 21:10:00,34.0,12.8,27.55,SE,139,8.7,8.7,41,0.00,,---,0.00,VWS V14.01,2013-02-22 05:10:00,
2013-02-21 21:15:00,34.0,12.8,27.55,South,177,7.6,7.6,41,0.00,,---,0.00,VWS V14.01,2013-02-22 05:15:00,
2013-02-21 21:20:00,34.0,12.2,27.55,SSE,155,5.4,8.7,40,0.00,,---,0.00,VWS V14.01,2013-02-22 05:20:00,
2013-02-21 21:25:00,34.2,12.4,27.55,SSE,158,8.1,8.7,40,0.00,,---,0.00,VWS V14.01,2013-02-22 05:25:00,
2013-02-21 21:30:00,34.2,12.4,27.55,SE,130,10.5,10.5,40,0.00,,---,0.00,VWS V14.01,2013-02-22 05:30:00,
2013-02-21 21:35:00,34.2,12.4,27.58,South,172,7.6,7.6,40,0.00,,---,0.00,VWS V14.01,2013-02-22 05:35:00,
2013-02-21 21:40:00,34.3,12.5,27.58,SSE,156,10.1,10.1,40,0.00,,---,0.00,VWS V14.01,2013-02-22 05:40:00,
2013-02-21 21:45:00,34.3,12.5,27.58,South,176,8.1,12.3,40,0.00,,---,0.00,VWS V14.01,2013-02-22 05:45:00,
2013-02-21 21:50:00,34.3,12.5,27.58,South,178,8.1,10.1,40,0.00,,---,0.00,VWS V14.01,2013-02-22 05:50:00,
2013-02-21 21:55:00,34.3,12.5,27.58,SSE,159,8.7,8.7,40,0.00,,---,0.00,VWS V14.01,2013-02-22 05:55:00,
2013-02-21 22:00:00,34.3,12.5,27.58,SSE,150,10.1,10.1,40,0.00,,---,0.00,VWS V14.01,2013-02-22 06:00:00,
2013-02-21 22:05:00,34.5,12.7,27.55,South,172,12.8,12.8,40,0.00,,---,0.00,VWS V14.01,2013-02-22 06:05:00,
2013-02-21 22:10:00,34.5,12.1,27.55,SSE,157,10.1,10.1,39,0.00,,---,0.00,VWS V14.01,2013-02-22 06:10:00,
2013-02-21 22:15:00,34.5,12.7,27.55,SSE,151,8.1,8.1,40,0.00,,---,0.00,VWS V14.01,2013-02-22 06:15:00,
2013-02-21 22:20:00,34.5,12.7,27.58,SSE,152,8.3,8.3,40,0.00,,---,0.00,VWS V14.01,2013-02-22 06:20:00,
2013-02-21 22:25:00,34.5,12.7,27.58,South,173,8.3,10.5,40,0.00,,---,0.00,VWS V14.01,2013-02-22 06:25:00,
2013-02-21 22:30:00,34.7,12.9,27.58,South,169,8.7,12.8,40,0.00,,---,0.00,VWS V14.01,2013-02-22 06:30:00,
2013-02-21 22:35:00,34.7,12.3,27.58,SSE,168,8.7,10.1,39,0.00,,---,0.00,VWS V14.01,2013-02-22 06:35:00,
2013-02-21 22:40:00,34.7,12.9,27.58,SSE,165,8.7,8.7,40,0.00,,---,0.00,VWS V14.01,2013-02-22 06:40:00,
2013-02-21 22:45:00,34.7,12.9,27.58,SSW,203,8.1,8.1,40,0.00,,---,0.00,VWS V14.01,2013-02-22 06:45:00,
2013-02-21 22:50:00,34.7,12.9,27.58,SSE,163,8.3,10.1,40,0.00,,---,0.00,VWS V14.01,2013-02-22 06:50:00,
2013-02-21 22:55:00,34.5,12.7,27.58,South,187,7.6,10.1,40,0.00,,---,0.00,VWS V14.01,2013-02-22 06:55:00,
2013-02-21 23:00:00,34.5,12.7,27.58,SSE,166,11.0,11.0,40,0.00,,---,0.00,VWS V14.01,2013-02-22 07:00:00,
2013-02-21 23:05:00,34.5,12.7,27.58,SSE,161,8.1,8.1,40,0.00,,---,0.00,VWS V14.01,2013-02-22 07:05:00,
2013-02-21 23:10:00,34.5,12.7,27.58,SSE,155,8.1,8.1,40,0.00,,---,0.00,VWS V14.01,2013-02-22 07:10:00,
2013-02-21 23:15:00,34.5,12.7,27.58,South,171,8.7,8.7,40,0.00,,---,0.00,VWS V14.01,2013-02-22 07:15:00,
2013-02-21 23:20:00,34.5,12.7,27.58,SSE,164,7.6,10.1,40,0.00,,---,0.00,VWS V14.01,2013-02-22 07:20:00,
2013-02-21 23:25:00,34.5,12.7,27.58,SSE,152,8.7,8.7,40,0.00,,---,0.00,VWS V14.01,2013-02-22 07:25:00,
2013-02-21 23:30:00,34.5,12.1,27.58,South,180,12.8,12.8,39,0.00,,---,0.00,VWS V14.01,2013-02-22 07:30:00,
2013-02-21 23:35:00,34.5,12.1,27.58,South,177,5.8,6.3,39,0.00,,---,0.00,VWS V14.01,2013-02-22 07:35:00,
2013-02-21 23:40:00,34.5,12.1,27.58,SSE,164,7.6,7.6,39,0.00,,---,0.00,VWS V14.01,2013-02-22 07:40:00,
2013-02-21 23:45:00,34.3,12.5,27.58,SSE,158,8.3,8.7,40,0.00,,---,0.00,VWS V14.01,2013-02-22 07:45:00,
2013-02-21 23:50:00,34.3,12.5,27.55,SSW,195,6.3,7.6,40,0.00,,---,0.00,VWS V14.01,2013-02-22 07:50:00,
2013-02-21 23:55:00,34.3,12.5,27.55,South,182,8.7,8.7,40,0.00,,---,0.00,VWS V14.01,2013-02-22 07:55:00,